sensor_id;sensor_type;location;lat;lon;timestamp;pressure;altitude;pressure_sealevel;temperature;humidity
39455;BME280;25155;41.890;23.446;2022-11-12T00:01:04;93046.81;;;6.94;66.55
39455;BME280;25155;41.890;23.446;2022-11-12T00:03:31;93040.66;;;6.88;66.40
39455;BME280;25155;41.890;23.446;2022-11-12T00:05:59;93047.50;;;6.82;66.89
39455;BME280;25155;41.890;23.446;2022-11-12T00:08:27;93036.56;;;6.80;67.33
39455;BME280;25155;41.890;23.446;2022-11-12T00:10:54;93041.53;;;6.82;67.28
39455;BME280;25155;41.890;23.446;2022-11-12T00:13:21;93034.69;;;6.88;68.15
39455;BME280;25155;41.890;23.446;2022-11-12T00:15:48;93031.94;;;6.82;68.41
39455;BME280;25155;41.890;23.446;2022-11-12T00:18:16;93030.72;;;6.60;69.29
39455;BME280;25155;41.890;23.446;2022-11-12T00:20:43;93026.34;;;6.60;68.66
39455;BME280;25155;41.890;23.446;2022-11-12T00:23:12;93025.56;;;6.53;68.87
39455;BME280;25155;41.890;23.446;2022-11-12T00:25:39;93006.59;;;6.34;69.50
39455;BME280;25155;41.890;23.446;2022-11-12T00:28:08;93023.81;;;6.47;69.10
39455;BME280;25155;41.890;23.446;2022-11-12T00:30:38;93022.00;;;6.54;69.14
39455;BME280;25155;41.890;23.446;2022-11-12T00:33:05;93024.53;;;6.61;68.72
39455;BME280;25155;41.890;23.446;2022-11-12T00:35:33;93027.47;;;6.64;68.73
39455;BME280;25155;41.890;23.446;2022-11-12T00:38:00;93029.66;;;6.68;68.66
39455;BME280;25155;41.890;23.446;2022-11-12T00:40:29;93036.06;;;6.65;68.52
39455;BME280;25155;41.890;23.446;2022-11-12T00:42:56;93033.03;;;6.68;68.50
39455;BME280;25155;41.890;23.446;2022-11-12T00:45:23;93026.44;;;6.72;68.27
39455;BME280;25155;41.890;23.446;2022-11-12T00:47:53;93018.50;;;6.67;68.13
39455;BME280;25155;41.890;23.446;2022-11-12T00:50:21;93018.00;;;6.52;69.48
39455;BME280;25155;41.890;23.446;2022-11-12T00:52:50;93018.41;;;6.49;69.40
39455;BME280;25155;41.890;23.446;2022-11-12T00:55:18;93017.78;;;6.53;69.03
39455;BME280;25155;41.890;23.446;2022-11-12T00:57:46;93014.56;;;6.58;68.79
39455;BME280;25155;41.890;23.446;2022-11-12T01:00:15;93010.78;;;6.60;68.81
39455;BME280;25155;41.890;23.446;2022-11-12T01:02:42;93012.56;;;6.60;68.92
39455;BME280;25155;41.890;23.446;2022-11-12T01:05:10;93006.16;;;6.62;68.95
39455;BME280;25155;41.890;23.446;2022-11-12T01:07:37;93010.94;;;6.65;69.04
39455;BME280;25155;41.890;23.446;2022-11-12T01:10:05;93007.31;;;6.67;68.43
39455;BME280;25155;41.890;23.446;2022-11-12T01:12:32;93006.13;;;6.69;68.82
39455;BME280;25155;41.890;23.446;2022-11-12T01:15:01;93001.72;;;6.70;68.36
39455;BME280;25155;41.890;23.446;2022-11-12T01:17:29;92995.31;;;6.72;68.33
39455;BME280;25155;41.890;23.446;2022-11-12T01:19:56;92988.34;;;6.73;68.09
39455;BME280;25155;41.890;23.446;2022-11-12T01:22:23;92985.75;;;6.73;68.19
39455;BME280;25155;41.890;23.446;2022-11-12T01:24:50;92976.16;;;6.73;68.00
39455;BME280;25155;41.890;23.446;2022-11-12T01:27:18;92973.00;;;6.71;68.43
39455;BME280;25155;41.890;23.446;2022-11-12T01:29:45;92976.00;;;6.68;68.86
39455;BME280;25155;41.890;23.446;2022-11-12T01:32:13;92979.00;;;6.65;69.40
39455;BME280;25155;41.890;23.446;2022-11-12T01:34:41;92969.94;;;6.56;69.53
39455;BME280;25155;41.890;23.446;2022-11-12T01:37:08;92967.97;;;6.51;69.41
39455;BME280;25155;41.890;23.446;2022-11-12T01:39:35;92964.00;;;6.49;69.68
39455;BME280;25155;41.890;23.446;2022-11-12T01:42:02;92957.25;;;6.47;69.65
39455;BME280;25155;41.890;23.446;2022-11-12T01:44:30;92963.63;;;6.45;70.49
39455;BME280;25155;41.890;23.446;2022-11-12T01:47:02;92966.06;;;6.40;70.69
39455;BME280;25155;41.890;23.446;2022-11-12T01:49:35;92959.94;;;6.34;70.35
39455;BME280;25155;41.890;23.446;2022-11-12T01:52:13;92972.38;;;6.19;71.73
39455;BME280;25155;41.890;23.446;2022-11-12T01:54:44;92962.53;;;5.96;71.55
39455;BME280;25155;41.890;23.446;2022-11-12T01:57:16;92974.50;;;6.03;71.38
39455;BME280;25155;41.890;23.446;2022-11-12T01:59:46;92973.09;;;6.07;71.17
39455;BME280;25155;41.890;23.446;2022-11-12T02:02:15;92977.44;;;6.07;71.08
39455;BME280;25155;41.890;23.446;2022-11-12T02:04:44;92985.78;;;6.09;70.91
39455;BME280;25155;41.890;23.446;2022-11-12T02:07:12;92985.19;;;6.14;70.40
39455;BME280;25155;41.890;23.446;2022-11-12T02:09:40;92988.56;;;6.14;70.68
39455;BME280;25155;41.890;23.446;2022-11-12T02:12:07;92983.97;;;6.16;70.22
39455;BME280;25155;41.890;23.446;2022-11-12T02:14:55;92989.38;;;6.15;69.73
39455;BME280;25155;41.890;23.446;2022-11-12T02:17:22;92983.19;;;6.09;69.59
39455;BME280;25155;41.890;23.446;2022-11-12T02:19:52;92986.06;;;6.01;70.14
39455;BME280;25155;41.890;23.446;2022-11-12T02:22:21;92988.44;;;5.96;70.42
39455;BME280;25155;41.890;23.446;2022-11-12T02:24:48;92985.69;;;5.90;71.18
39455;BME280;25155;41.890;23.446;2022-11-12T02:27:15;92985.88;;;5.89;70.72
39455;BME280;25155;41.890;23.446;2022-11-12T02:29:43;92976.38;;;5.83;71.21
39455;BME280;25155;41.890;23.446;2022-11-12T02:32:12;92981.69;;;5.56;72.46
39455;BME280;25155;41.890;23.446;2022-11-12T02:34:39;92987.50;;;5.45;72.96
39455;BME280;25155;41.890;23.446;2022-11-12T02:37:07;92981.34;;;5.39;73.55
39455;BME280;25155;41.890;23.446;2022-11-12T02:39:35;92984.75;;;5.40;73.11
39455;BME280;25155;41.890;23.446;2022-11-12T02:42:03;92973.34;;;5.47;72.79
39455;BME280;25155;41.890;23.446;2022-11-12T02:44:30;92973.97;;;5.43;73.05
39455;BME280;25155;41.890;23.446;2022-11-12T02:46:57;92984.53;;;5.41;73.17
39455;BME280;25155;41.890;23.446;2022-11-12T02:49:25;92982.13;;;5.46;72.95
39455;BME280;25155;41.890;23.446;2022-11-12T02:51:52;92990.06;;;5.51;72.27
39455;BME280;25155;41.890;23.446;2022-11-12T02:54:19;92983.47;;;5.55;72.29
39455;BME280;25155;41.890;23.446;2022-11-12T02:56:48;92992.03;;;5.56;72.18
39455;BME280;25155;41.890;23.446;2022-11-12T02:59:15;92979.28;;;5.61;72.03
39455;BME280;25155;41.890;23.446;2022-11-12T03:01:42;92980.84;;;5.62;71.64
39455;BME280;25155;41.890;23.446;2022-11-12T03:04:09;92984.00;;;5.64;71.56
39455;BME280;25155;41.890;23.446;2022-11-12T03:06:36;92984.41;;;5.68;71.64
39455;BME280;25155;41.890;23.446;2022-11-12T03:09:04;92989.97;;;5.71;71.70
39455;BME280;25155;41.890;23.446;2022-11-12T03:11:34;92993.16;;;5.73;71.36
39455;BME280;25155;41.890;23.446;2022-11-12T03:14:02;92992.72;;;5.77;71.62
39455;BME280;25155;41.890;23.446;2022-11-12T03:16:29;92992.72;;;5.77;71.12
39455;BME280;25155;41.890;23.446;2022-11-12T03:18:57;92982.41;;;5.70;71.82
39455;BME280;25155;41.890;23.446;2022-11-12T03:21:24;92985.94;;;5.37;73.01
39455;BME280;25155;41.890;23.446;2022-11-12T03:23:51;92989.75;;;5.21;73.73
39455;BME280;25155;41.890;23.446;2022-11-12T03:26:18;92999.28;;;5.27;73.96
39455;BME280;25155;41.890;23.446;2022-11-12T03:28:45;93004.25;;;5.35;73.77
39455;BME280;25155;41.890;23.446;2022-11-12T03:31:14;93012.38;;;5.39;73.22
39455;BME280;25155;41.890;23.446;2022-11-12T03:33:41;93011.78;;;5.44;73.43
39455;BME280;25155;41.890;23.446;2022-11-12T03:36:08;93013.75;;;5.48;73.15
39455;BME280;25155;41.890;23.446;2022-11-12T03:38:36;93000.41;;;5.51;72.83
39455;BME280;25155;41.890;23.446;2022-11-12T03:41:04;92996.97;;;5.58;72.52
39455;BME280;25155;41.890;23.446;2022-11-12T03:43:31;92998.00;;;5.57;72.52
39455;BME280;25155;41.890;23.446;2022-11-12T03:45:58;92988.22;;;5.59;72.46
39455;BME280;25155;41.890;23.446;2022-11-12T03:48:28;92985.28;;;5.55;72.30
39455;BME280;25155;41.890;23.446;2022-11-12T03:50:56;92982.06;;;5.60;72.26
39455;BME280;25155;41.890;23.446;2022-11-12T03:53:24;92983.63;;;5.61;72.63
39455;BME280;25155;41.890;23.446;2022-11-12T03:55:51;92986.19;;;5.67;72.51
39455;BME280;25155;41.890;23.446;2022-11-12T03:58:19;92987.59;;;5.70;72.81
39455;BME280;25155;41.890;23.446;2022-11-12T04:00:46;92983.19;;;5.70;72.84
39455;BME280;25155;41.890;23.446;2022-11-12T04:03:13;92978.44;;;5.67;73.15
39455;BME280;25155;41.890;23.446;2022-11-12T04:05:42;92972.84;;;5.70;73.45
39455;BME280;25155;41.890;23.446;2022-11-12T04:08:26;92974.81;;;5.75;73.00
39455;BME280;25155;41.890;23.446;2022-11-12T04:11:04;92978.81;;;5.78;72.92
39455;BME280;25155;41.890;23.446;2022-11-12T04:13:32;92972.97;;;5.82;72.71
39455;BME280;25155;41.890;23.446;2022-11-12T04:16:01;92968.41;;;5.84;72.68
39455;BME280;25155;41.890;23.446;2022-11-12T04:18:46;92964.00;;;5.85;72.27
39455;BME280;25155;41.890;23.446;2022-11-12T04:21:36;92970.19;;;5.84;72.31
39455;BME280;25155;41.890;23.446;2022-11-12T04:24:17;92961.22;;;5.86;72.17
39455;BME280;25155;41.890;23.446;2022-11-12T04:27:03;92957.19;;;5.90;72.03
39455;BME280;25155;41.890;23.446;2022-11-12T04:29:30;92954.41;;;5.92;72.12
39455;BME280;25155;41.890;23.446;2022-11-12T04:32:15;92955.78;;;5.95;72.08
39455;BME280;25155;41.890;23.446;2022-11-12T04:34:42;92952.81;;;5.98;71.70
39455;BME280;25155;41.890;23.446;2022-11-12T04:37:11;92955.19;;;5.99;71.90
39455;BME280;25155;41.890;23.446;2022-11-12T04:39:38;92956.34;;;6.03;71.85
39455;BME280;25155;41.890;23.446;2022-11-12T04:42:07;92956.34;;;6.03;71.95
39455;BME280;25155;41.890;23.446;2022-11-12T04:44:51;92947.59;;;6.04;71.91
39455;BME280;25155;41.890;23.446;2022-11-12T04:47:34;92953.97;;;6.02;72.29
39455;BME280;25155;41.890;23.446;2022-11-12T04:50:02;92964.13;;;6.03;72.63
39455;BME280;25155;41.890;23.446;2022-11-12T04:52:31;92960.97;;;6.01;72.51
39455;BME280;25155;41.890;23.446;2022-11-12T04:54:59;92957.97;;;6.04;72.06
39455;BME280;25155;41.890;23.446;2022-11-12T04:57:26;92962.38;;;5.97;73.36
39455;BME280;25155;41.890;23.446;2022-11-12T04:59:53;92960.38;;;5.99;72.94
39455;BME280;25155;41.890;23.446;2022-11-12T05:02:20;92951.81;;;5.92;72.35
39455;BME280;25155;41.890;23.446;2022-11-12T05:04:47;92958.84;;;5.85;72.79
39455;BME280;25155;41.890;23.446;2022-11-12T05:07:15;92960.25;;;5.81;72.42
39455;BME280;25155;41.890;23.446;2022-11-12T05:09:44;92956.50;;;5.77;72.38
39455;BME280;25155;41.890;23.446;2022-11-12T05:12:12;92968.00;;;5.81;72.00
39455;BME280;25155;41.890;23.446;2022-11-12T05:14:39;92968.81;;;5.81;71.94
39455;BME280;25155;41.890;23.446;2022-11-12T05:17:06;92968.00;;;5.81;72.01
39455;BME280;25155;41.890;23.446;2022-11-12T05:19:33;92966.44;;;5.80;72.27
39455;BME280;25155;41.890;23.446;2022-11-12T05:22:01;92973.19;;;5.81;72.10
39455;BME280;25155;41.890;23.446;2022-11-12T05:24:37;92975.19;;;5.79;71.97
39455;BME280;25155;41.890;23.446;2022-11-12T05:27:09;92973.19;;;5.81;72.06
39455;BME280;25155;41.890;23.446;2022-11-12T05:29:36;92978.34;;;5.81;71.62
39455;BME280;25155;41.890;23.446;2022-11-12T05:32:05;92983.19;;;5.70;72.25
39455;BME280;25155;41.890;23.446;2022-11-12T05:34:32;92981.63;;;5.69;72.14
39455;BME280;25155;41.890;23.446;2022-11-12T05:37:01;92987.59;;;5.70;72.61
39455;BME280;25155;41.890;23.446;2022-11-12T05:39:29;92986.38;;;5.72;72.53
39455;BME280;25155;41.890;23.446;2022-11-12T05:41:56;92990.75;;;5.72;72.33
39455;BME280;25155;41.890;23.446;2022-11-12T05:44:25;93000.66;;;5.82;72.48
39455;BME280;25155;41.890;23.446;2022-11-12T05:46:52;93000.56;;;6.08;72.27
39455;BME280;25155;41.890;23.446;2022-11-12T05:49:19;92992.28;;;6.25;71.75
39455;BME280;25155;41.890;23.446;2022-11-12T05:51:47;92999.22;;;6.31;71.18
39455;BME280;25155;41.890;23.446;2022-11-12T05:54:14;92989.84;;;6.30;71.27
39455;BME280;25155;41.890;23.446;2022-11-12T05:56:41;92996.84;;;6.30;70.93
39455;BME280;25155;41.890;23.446;2022-11-12T05:59:10;93004.25;;;6.26;70.91
39455;BME280;25155;41.890;23.446;2022-11-12T06:01:40;92992.13;;;6.20;71.01
39455;BME280;25155;41.890;23.446;2022-11-12T06:04:10;93004.09;;;6.21;71.38
39455;BME280;25155;41.890;23.446;2022-11-12T06:06:38;93009.53;;;6.06;71.89
39455;BME280;25155;41.890;23.446;2022-11-12T06:09:06;93009.75;;;6.04;71.96
39455;BME280;25155;41.890;23.446;2022-11-12T06:11:34;93010.91;;;6.08;71.94
39455;BME280;25155;41.890;23.446;2022-11-12T06:14:02;93003.31;;;6.14;72.06
39455;BME280;25155;41.890;23.446;2022-11-12T06:16:29;93014.28;;;6.09;71.96
39455;BME280;25155;41.890;23.446;2022-11-12T06:18:58;93020.94;;;5.98;72.45
39455;BME280;25155;41.890;23.446;2022-11-12T06:21:27;93021.09;;;6.03;72.78
39455;BME280;25155;41.890;23.446;2022-11-12T06:23:56;93025.72;;;6.01;72.76
39455;BME280;25155;41.890;23.446;2022-11-12T06:26:25;93027.88;;;6.04;72.76
39455;BME280;25155;41.890;23.446;2022-11-12T06:28:53;93026.44;;;6.08;73.28
39455;BME280;25155;41.890;23.446;2022-11-12T06:31:20;93028.06;;;6.09;73.44
39455;BME280;25155;41.890;23.446;2022-11-12T06:33:48;93024.03;;;6.14;72.76
39455;BME280;25155;41.890;23.446;2022-11-12T06:36:18;93022.06;;;6.16;72.62
39455;BME280;25155;41.890;23.446;2022-11-12T06:38:46;93035.00;;;6.16;72.85
39455;BME280;25155;41.890;23.446;2022-11-12T06:41:14;93047.16;;;6.08;74.33
39455;BME280;25155;41.890;23.446;2022-11-12T06:43:41;93039.59;;;6.07;74.27
39455;BME280;25155;41.890;23.446;2022-11-12T06:46:11;93037.19;;;6.12;74.08
39455;BME280;25155;41.890;23.446;2022-11-12T06:48:39;93031.97;;;6.19;73.87
39455;BME280;25155;41.890;23.446;2022-11-12T06:51:09;93043.31;;;6.24;73.76
39455;BME280;25155;41.890;23.446;2022-11-12T06:53:38;93043.47;;;6.30;73.54
39455;BME280;25155;41.890;23.446;2022-11-12T06:56:06;93034.28;;;6.34;73.15
39455;BME280;25155;41.890;23.446;2022-11-12T06:58:34;93038.03;;;6.38;73.68
39455;BME280;25155;41.890;23.446;2022-11-12T07:01:07;93047.19;;;6.40;73.53
39455;BME280;25155;41.890;23.446;2022-11-12T07:03:38;93041.16;;;6.46;73.88
39455;BME280;25155;41.890;23.446;2022-11-12T07:06:08;93048.13;;;6.53;74.02
39455;BME280;25155;41.890;23.446;2022-11-12T07:08:36;93055.22;;;6.64;73.38
39455;BME280;25155;41.890;23.446;2022-11-12T07:11:05;93052.78;;;6.69;73.90
39455;BME280;25155;41.890;23.446;2022-11-12T07:13:34;93044.78;;;6.71;73.78
39455;BME280;25155;41.890;23.446;2022-11-12T07:16:03;93054.69;;;6.80;73.38
39455;BME280;25155;41.890;23.446;2022-11-12T07:18:31;93060.81;;;6.86;73.16
39455;BME280;25155;41.890;23.446;2022-11-12T07:20:59;93060.78;;;6.93;73.20
39455;BME280;25155;41.890;23.446;2022-11-12T07:23:28;93063.94;;;6.95;73.15
39455;BME280;25155;41.890;23.446;2022-11-12T07:25:57;93065.31;;;6.97;72.95
39455;BME280;25155;41.890;23.446;2022-11-12T07:28:26;93062.31;;;7.00;73.37
39455;BME280;25155;41.890;23.446;2022-11-12T07:30:55;93069.25;;;7.07;72.59
39455;BME280;25155;41.890;23.446;2022-11-12T07:33:23;93062.47;;;7.06;72.38
39455;BME280;25155;41.890;23.446;2022-11-12T07:35:56;93065.28;;;7.04;72.45
39455;BME280;25155;41.890;23.446;2022-11-12T07:38:25;93058.63;;;7.08;72.35
39455;BME280;25155;41.890;23.446;2022-11-12T07:40:58;93061.22;;;7.08;72.20
39455;BME280;25155;41.890;23.446;2022-11-12T07:43:27;93052.94;;;6.99;72.88
39455;BME280;25155;41.890;23.446;2022-11-12T07:45:57;93060.28;;;7.02;72.33
39455;BME280;25155;41.890;23.446;2022-11-12T07:48:25;93070.50;;;6.97;73.28
39455;BME280;25155;41.890;23.446;2022-11-12T07:50:58;93069.19;;;6.88;73.83
39455;BME280;25155;41.890;23.446;2022-11-12T07:53:26;93061.03;;;6.84;73.80
39455;BME280;25155;41.890;23.446;2022-11-12T07:55:54;93066.63;;;6.81;74.16
39455;BME280;25155;41.890;23.446;2022-11-12T07:58:22;93071.09;;;6.74;74.91
39455;BME280;25155;41.890;23.446;2022-11-12T08:00:51;93069.75;;;6.65;75.23
39455;BME280;25155;41.890;23.446;2022-11-12T08:03:19;93075.09;;;6.70;75.49
39455;BME280;25155;41.890;23.446;2022-11-12T08:05:46;93074.31;;;6.70;75.25
39455;BME280;25155;41.890;23.446;2022-11-12T08:08:14;93083.91;;;6.69;75.48
39455;BME280;25155;41.890;23.446;2022-11-12T08:10:41;93078.72;;;6.69;74.50
39455;BME280;25155;41.890;23.446;2022-11-12T08:13:08;93083.13;;;6.62;74.02
39455;BME280;25155;41.890;23.446;2022-11-12T08:15:35;93090.50;;;6.65;73.51
39455;BME280;25155;41.890;23.446;2022-11-12T08:18:04;93092.81;;;6.73;73.50
39455;BME280;25155;41.890;23.446;2022-11-12T08:20:31;93092.41;;;6.76;73.34
39455;BME280;25155;41.890;23.446;2022-11-12T08:22:59;93074.16;;;6.64;73.39
39455;BME280;25155;41.890;23.446;2022-11-12T08:25:26;93101.28;;;6.94;73.63
39455;BME280;25155;41.890;23.446;2022-11-12T08:27:56;93099.41;;;7.01;73.06
39455;BME280;25155;41.890;23.446;2022-11-12T08:30:24;93102.31;;;7.11;73.06
39455;BME280;25155;41.890;23.446;2022-11-12T08:32:56;93100.69;;;7.17;72.79
39455;BME280;25155;41.890;23.446;2022-11-12T08:35:24;93105.66;;;6.93;73.69
39455;BME280;25155;41.890;23.446;2022-11-12T08:37:57;93118.03;;;7.16;73.15
39455;BME280;25155;41.890;23.446;2022-11-12T08:40:24;93119.94;;;7.28;72.92
39455;BME280;25155;41.890;23.446;2022-11-12T08:42:57;93122.19;;;7.24;72.51
39455;BME280;25155;41.890;23.446;2022-11-12T08:45:25;93125.41;;;7.19;72.31
39455;BME280;25155;41.890;23.446;2022-11-12T08:47:52;93129.44;;;7.15;72.58
39455;BME280;25155;41.890;23.446;2022-11-12T08:50:26;93138.31;;;7.01;72.85
39455;BME280;25155;41.890;23.446;2022-11-12T08:52:58;93140.44;;;6.86;70.93
39455;BME280;25155;41.890;23.446;2022-11-12T08:55:26;93136.63;;;6.88;71.65
39455;BME280;25155;41.890;23.446;2022-11-12T08:57:53;93140.75;;;6.96;71.97
39455;BME280;25155;41.890;23.446;2022-11-12T09:00:23;93143.09;;;7.04;71.84
39455;BME280;25155;41.890;23.446;2022-11-12T09:02:51;93141.75;;;6.95;72.62
39455;BME280;25155;41.890;23.446;2022-11-12T09:05:18;93150.41;;;6.89;73.74
39455;BME280;25155;41.890;23.446;2022-11-12T09:07:47;93148.25;;;6.79;74.45
39455;BME280;25155;41.890;23.446;2022-11-12T09:10:14;93147.69;;;6.70;74.82
39455;BME280;25155;41.890;23.446;2022-11-12T09:12:41;93146.13;;;6.69;74.30
39455;BME280;25155;41.890;23.446;2022-11-12T09:15:09;93140.56;;;6.65;74.96
39455;BME280;25155;41.890;23.446;2022-11-12T09:17:36;93149.53;;;6.63;73.94
39455;BME280;25155;41.890;23.446;2022-11-12T09:20:04;93135.59;;;6.64;73.84
39455;BME280;25155;41.890;23.446;2022-11-12T09:22:31;93146.66;;;6.46;75.51
39455;BME280;25155;41.890;23.446;2022-11-12T09:25:00;93142.44;;;6.45;75.79
39455;BME280;25155;41.890;23.446;2022-11-12T09:27:28;93145.84;;;6.45;75.87
39455;BME280;25155;41.890;23.446;2022-11-12T09:29:55;93141.09;;;6.42;75.35
39455;BME280;25155;41.890;23.446;2022-11-12T09:32:22;93143.53;;;6.31;76.58
39455;BME280;25155;41.890;23.446;2022-11-12T09:34:50;93143.53;;;6.31;77.05
39455;BME280;25155;41.890;23.446;2022-11-12T09:37:17;93139.31;;;6.36;75.78
39455;BME280;25155;41.890;23.446;2022-11-12T09:39:44;93136.84;;;6.48;75.52
39455;BME280;25155;41.890;23.446;2022-11-12T09:42:15;93144.19;;;6.58;75.76
39455;BME280;25155;41.890;23.446;2022-11-12T09:44:48;93133.38;;;6.68;75.60
39455;BME280;25155;41.890;23.446;2022-11-12T09:47:26;93130.94;;;6.73;75.27
39455;BME280;25155;41.890;23.446;2022-11-12T09:50:00;93132.09;;;6.77;74.59
39455;BME280;25155;41.890;23.446;2022-11-12T09:52:29;93126.91;;;6.83;74.33
39455;BME280;25155;41.890;23.446;2022-11-12T09:55:01;93132.25;;;6.89;74.35
39455;BME280;25155;41.890;23.446;2022-11-12T09:57:33;93132.03;;;6.90;74.19
39455;BME280;25155;41.890;23.446;2022-11-12T10:00:00;93126.78;;;6.97;74.23
39455;BME280;25155;41.890;23.446;2022-11-12T10:02:34;93130.81;;;6.93;73.42
39455;BME280;25155;41.890;23.446;2022-11-12T10:05:16;93137.59;;;6.94;73.13
39455;BME280;25155;41.890;23.446;2022-11-12T10:07:59;93128.41;;;6.91;72.16
39455;BME280;25155;41.890;23.446;2022-11-12T10:10:33;93138.16;;;6.96;73.16
39455;BME280;25155;41.890;23.446;2022-11-12T10:13:19;93125.34;;;7.01;73.06
39455;BME280;25155;41.890;23.446;2022-11-12T10:16:17;93129.97;;;6.99;73.02
39455;BME280;25155;41.890;23.446;2022-11-12T10:22:12;93127.91;;;7.08;72.88
39455;BME280;25155;41.890;23.446;2022-11-12T10:24:43;93127.84;;;7.14;73.06
39455;BME280;25155;41.890;23.446;2022-11-12T10:27:14;93121.44;;;7.17;72.87
39455;BME280;25155;41.890;23.446;2022-11-12T10:29:46;93119.63;;;6.92;73.45
39455;BME280;25155;41.890;23.446;2022-11-12T10:32:15;93128.25;;;7.11;73.46
39455;BME280;25155;41.890;23.446;2022-11-12T10:34:43;93131.00;;;7.16;73.13
39455;BME280;25155;41.890;23.446;2022-11-12T10:37:14;93126.00;;;7.22;72.54
39455;BME280;25155;41.890;23.446;2022-11-12T10:39:44;93120.97;;;7.27;72.69
39455;BME280;25155;41.890;23.446;2022-11-12T10:42:17;93120.53;;;7.30;72.88
39455;BME280;25155;41.890;23.446;2022-11-12T10:44:46;93117.28;;;7.34;72.78
39455;BME280;25155;41.890;23.446;2022-11-12T10:47:35;93117.09;;;7.36;72.54
39455;BME280;25155;41.890;23.446;2022-11-12T10:50:17;93113.66;;;7.42;72.54
39455;BME280;25155;41.890;23.446;2022-11-12T10:52:57;93113.66;;;7.42;73.13
39455;BME280;25155;41.890;23.446;2022-11-12T10:55:26;93116.38;;;7.47;72.48
39455;BME280;25155;41.890;23.446;2022-11-12T10:58:21;93114.44;;;7.43;72.62
39455;BME280;25155;41.890;23.446;2022-11-12T11:00:55;93113.22;;;7.45;72.25
39455;BME280;25155;41.890;23.446;2022-11-12T11:03:25;93119.13;;;7.52;72.45
39455;BME280;25155;41.890;23.446;2022-11-12T11:05:55;93119.28;;;7.57;72.54
39455;BME280;25155;41.890;23.446;2022-11-12T11:08:47;93115.53;;;7.53;72.52
39455;BME280;25155;41.890;23.446;2022-11-12T11:11:21;93119.28;;;7.57;72.26
39455;BME280;25155;41.890;23.446;2022-11-12T11:13:49;93118.84;;;7.61;72.34
39455;BME280;25155;41.890;23.446;2022-11-12T11:16:19;93110.28;;;7.60;72.25
39455;BME280;25155;41.890;23.446;2022-11-12T11:18:49;93111.06;;;7.61;71.86
39455;BME280;25155;41.890;23.446;2022-11-12T11:21:55;93109.91;;;7.56;71.93
39455;BME280;25155;41.890;23.446;2022-11-12T11:27:28;93101.69;;;7.60;72.11
39455;BME280;25155;41.890;23.446;2022-11-12T11:30:04;93072.41;;;7.52;71.99
39455;BME280;25155;41.890;23.446;2022-11-12T11:33:14;93100.97;;;7.71;71.98
39455;BME280;25155;41.890;23.446;2022-11-12T11:35:52;93096.13;;;7.74;72.00
39455;BME280;25155;41.890;23.446;2022-11-12T11:38:30;93096.53;;;7.78;71.78
39455;BME280;25155;41.890;23.446;2022-11-12T11:43:53;93094.50;;;7.80;71.84
39455;BME280;25155;41.890;23.446;2022-11-12T11:46:39;93090.28;;;7.79;71.48
39455;BME280;25155;41.890;23.446;2022-11-12T11:49:32;93089.28;;;7.80;71.56
39455;BME280;25155;41.890;23.446;2022-11-12T11:52:11;93077.22;;;7.86;71.59
39455;BME280;25155;41.890;23.446;2022-11-12T11:54:53;93066.41;;;7.89;71.84
39455;BME280;25155;41.890;23.446;2022-11-12T11:57:28;93063.16;;;7.93;71.94
39455;BME280;25155;41.890;23.446;2022-11-12T12:00:07;93067.16;;;7.96;71.94
39455;BME280;25155;41.890;23.446;2022-11-12T12:02:56;93064.75;;;7.94;71.90
39455;BME280;25155;41.890;23.446;2022-11-12T12:05:39;93070.31;;;7.98;72.10
39455;BME280;25155;41.890;23.446;2022-11-12T12:08:09;93067.63;;;8.05;72.17
39455;BME280;25155;41.890;23.446;2022-11-12T12:10:47;93064.25;;;8.04;72.18
39455;BME280;25155;41.890;23.446;2022-11-12T12:13:24;93059.75;;;8.11;71.97
39455;BME280;25155;41.890;23.446;2022-11-12T12:16:14;93062.13;;;8.13;71.58
39455;BME280;25155;41.890;23.446;2022-11-12T12:18:48;93063.28;;;8.17;72.03
39455;BME280;25155;41.890;23.446;2022-11-12T12:21:20;93051.66;;;8.20;71.69
39455;BME280;25155;41.890;23.446;2022-11-12T12:23:52;93059.00;;;8.23;71.25
39455;BME280;25155;41.890;23.446;2022-11-12T12:26:22;93054.59;;;7.93;72.04
39455;BME280;25155;41.890;23.446;2022-11-12T12:28:54;93055.91;;;8.14;71.93
39455;BME280;25155;41.890;23.446;2022-11-12T12:31:25;93056.63;;;8.21;71.99
39455;BME280;25155;41.890;23.446;2022-11-12T12:33:57;93052.78;;;8.24;71.58
39455;BME280;25155;41.890;23.446;2022-11-12T12:36:32;93054.72;;;8.28;71.62
39455;BME280;25155;41.890;23.446;2022-11-12T12:39:12;93050.09;;;8.30;71.63
39455;BME280;25155;41.890;23.446;2022-11-12T12:41:45;93052.25;;;8.34;71.46
39455;BME280;25155;41.890;23.446;2022-11-12T12:44:15;93053.97;;;8.40;71.12
39455;BME280;25155;41.890;23.446;2022-11-12T12:46:44;93055.78;;;8.39;70.75
39455;BME280;25155;41.890;23.446;2022-11-12T12:49:15;93052.38;;;8.39;70.74
39455;BME280;25155;41.890;23.446;2022-11-12T12:51:45;93053.97;;;8.40;71.08
39455;BME280;25155;41.890;23.446;2022-11-12T12:57:30;93047.63;;;8.36;70.86
39455;BME280;25155;41.890;23.446;2022-11-12T13:00:27;93045.50;;;8.32;70.30
39455;BME280;25155;41.890;23.446;2022-11-12T13:02:58;93043.09;;;8.31;70.02
39455;BME280;25155;41.890;23.446;2022-11-12T13:05:28;93045.13;;;8.29;70.22
39455;BME280;25155;41.890;23.446;2022-11-12T13:07:59;93036.97;;;8.25;70.24
39455;BME280;25155;41.890;23.446;2022-11-12T13:10:52;93053.00;;;8.22;70.14
39455;BME280;25155;41.890;23.446;2022-11-12T13:13:38;93021.00;;;8.10;70.39
39455;BME280;25155;41.890;23.446;2022-11-12T13:16:06;93042.28;;;8.30;70.68
39455;BME280;25155;41.890;23.446;2022-11-12T13:18:57;93043.97;;;8.25;70.67
39455;BME280;25155;41.890;23.446;2022-11-12T13:21:25;93047.50;;;8.30;70.52
39455;BME280;25155;41.890;23.446;2022-11-12T13:23:54;93041.50;;;8.30;70.64
39455;BME280;25155;41.890;23.446;2022-11-12T13:26:43;93047.50;;;8.30;70.68
39455;BME280;25155;41.890;23.446;2022-11-12T13:32:35;93046.25;;;8.21;70.63
39455;BME280;25155;41.890;23.446;2022-11-12T13:35:27;93050.41;;;8.22;70.51